sensor_id;sensor_type;location;lat;lon;timestamp;P1;durP1;ratioP1;P2;durP2;ratioP2
11675;SDS011;5894;42.768;23.404;2023-02-11T00:01:57;53.50;;;23.73;;
11675;SDS011;5894;42.768;23.404;2023-02-11T00:04:25;48.83;;;22.37;;
11675;SDS011;5894;42.768;23.404;2023-02-11T00:06:52;43.33;;;18.83;;
11675;SDS011;5894;42.768;23.404;2023-02-11T00:09:19;40.87;;;18.07;;
11675;SDS011;5894;42.768;23.404;2023-02-11T00:11:46;44.00;;;19.47;;
11675;SDS011;5894;42.768;23.404;2023-02-11T00:14:13;44.77;;;20.33;;
11675;SDS011;5894;42.768;23.404;2023-02-11T00:16:39;55.83;;;22.03;;
11675;SDS011;5894;42.768;23.404;2023-02-11T00:19:09;70.23;;;26.67;;
11675;SDS011;5894;42.768;23.404;2023-02-11T00:21:36;54.93;;;21.77;;
11675;SDS011;5894;42.768;23.404;2023-02-11T00:24:02;49.73;;;20.60;;
11675;SDS011;5894;42.768;23.404;2023-02-11T00:26:30;54.60;;;21.27;;
11675;SDS011;5894;42.768;23.404;2023-02-11T00:28:58;71.53;;;23.77;;
11675;SDS011;5894;42.768;23.404;2023-02-11T00:31:29;73.43;;;26.03;;
11675;SDS011;5894;42.768;23.404;2023-02-11T00:33:56;66.17;;;24.50;;
11675;SDS011;5894;42.768;23.404;2023-02-11T00:36:25;67.43;;;24.80;;
11675;SDS011;5894;42.768;23.404;2023-02-11T00:38:54;65.47;;;24.70;;
11675;SDS011;5894;42.768;23.404;2023-02-11T00:41:22;49.90;;;19.23;;
11675;SDS011;5894;42.768;23.404;2023-02-11T00:43:50;36.67;;;16.67;;
11675;SDS011;5894;42.768;23.404;2023-02-11T00:46:17;44.03;;;17.60;;
11675;SDS011;5894;42.768;23.404;2023-02-11T00:48:44;46.00;;;19.23;;
11675;SDS011;5894;42.768;23.404;2023-02-11T00:51:12;43.00;;;19.53;;
11675;SDS011;5894;42.768;23.404;2023-02-11T00:53:40;45.97;;;20.13;;
11675;SDS011;5894;42.768;23.404;2023-02-11T00:56:07;50.60;;;20.60;;
11675;SDS011;5894;42.768;23.404;2023-02-11T00:58:34;51.13;;;21.67;;
11675;SDS011;5894;42.768;23.404;2023-02-11T01:01:02;54.90;;;20.57;;
11675;SDS011;5894;42.768;23.404;2023-02-11T01:03:29;66.23;;;26.10;;
11675;SDS011;5894;42.768;23.404;2023-02-11T01:05:56;65.17;;;25.37;;
11675;SDS011;5894;42.768;23.404;2023-02-11T01:08:23;61.57;;;24.87;;
11675;SDS011;5894;42.768;23.404;2023-02-11T01:10:56;53.73;;;22.67;;
11675;SDS011;5894;42.768;23.404;2023-02-11T01:13:24;56.03;;;21.50;;
11675;SDS011;5894;42.768;23.404;2023-02-11T01:15:53;50.07;;;20.57;;
11675;SDS011;5894;42.768;23.404;2023-02-11T01:18:22;48.10;;;20.37;;
11675;SDS011;5894;42.768;23.404;2023-02-11T01:20:49;48.77;;;19.67;;
11675;SDS011;5894;42.768;23.404;2023-02-11T01:23:16;78.30;;;29.03;;
11675;SDS011;5894;42.768;23.404;2023-02-11T01:25:43;72.97;;;23.27;;
11675;SDS011;5894;42.768;23.404;2023-02-11T01:28:13;45.17;;;19.50;;
11675;SDS011;5894;42.768;23.404;2023-02-11T01:30:42;42.20;;;19.90;;
11675;SDS011;5894;42.768;23.404;2023-02-11T01:33:09;41.00;;;17.47;;
11675;SDS011;5894;42.768;23.404;2023-02-11T01:35:36;26.47;;;13.53;;
11675;SDS011;5894;42.768;23.404;2023-02-11T01:38:04;26.47;;;11.80;;
11675;SDS011;5894;42.768;23.404;2023-02-11T01:40:32;22.87;;;11.43;;
11675;SDS011;5894;42.768;23.404;2023-02-11T01:43:01;28.50;;;11.67;;
11675;SDS011;5894;42.768;23.404;2023-02-11T01:48:26;48.33;;;17.57;;
11675;SDS011;5894;42.768;23.404;2023-02-11T01:50:56;70.47;;;23.23;;
11675;SDS011;5894;42.768;23.404;2023-02-11T01:53:27;63.63;;;21.93;;
11675;SDS011;5894;42.768;23.404;2023-02-11T01:56:16;37.40;;;16.40;;
11675;SDS011;5894;42.768;23.404;2023-02-11T01:59:05;35.37;;;16.03;;
11675;SDS011;5894;42.768;23.404;2023-02-11T02:01:38;29.80;;;13.67;;
11675;SDS011;5894;42.768;23.404;2023-02-11T02:04:06;33.83;;;15.10;;
11675;SDS011;5894;42.768;23.404;2023-02-11T02:06:36;34.33;;;16.63;;
11675;SDS011;5894;42.768;23.404;2023-02-11T02:09:10;31.10;;;14.50;;
11675;SDS011;5894;42.768;23.404;2023-02-11T02:11:42;28.57;;;13.00;;
11675;SDS011;5894;42.768;23.404;2023-02-11T02:14:08;25.87;;;11.37;;
11675;SDS011;5894;42.768;23.404;2023-02-11T02:16:35;26.23;;;12.77;;
11675;SDS011;5894;42.768;23.404;2023-02-11T02:19:10;33.37;;;13.80;;
11675;SDS011;5894;42.768;23.404;2023-02-11T02:24:58;39.80;;;17.17;;
11675;SDS011;5894;42.768;23.404;2023-02-11T02:27:49;37.33;;;16.17;;
11675;SDS011;5894;42.768;23.404;2023-02-11T02:30:37;32.53;;;15.20;;
11675;SDS011;5894;42.768;23.404;2023-02-11T02:33:20;30.67;;;14.80;;
11675;SDS011;5894;42.768;23.404;2023-02-11T02:36:00;28.10;;;14.57;;
11675;SDS011;5894;42.768;23.404;2023-02-11T02:38:36;22.33;;;12.67;;
11675;SDS011;5894;42.768;23.404;2023-02-11T02:41:06;23.20;;;12.13;;
11675;SDS011;5894;42.768;23.404;2023-02-11T02:43:35;21.83;;;11.50;;
11675;SDS011;5894;42.768;23.404;2023-02-11T02:46:12;31.33;;;12.37;;
11675;SDS011;5894;42.768;23.404;2023-02-11T02:48:42;29.60;;;12.27;;
11675;SDS011;5894;42.768;23.404;2023-02-11T02:54:36;28.40;;;11.43;;
11675;SDS011;5894;42.768;23.404;2023-02-11T02:57:28;30.20;;;11.77;;
11675;SDS011;5894;42.768;23.404;2023-02-11T03:00:04;38.77;;;16.13;;
11675;SDS011;5894;42.768;23.404;2023-02-11T03:02:41;33.47;;;13.27;;
11675;SDS011;5894;42.768;23.404;2023-02-11T03:05:22;31.07;;;13.53;;
11675;SDS011;5894;42.768;23.404;2023-02-11T03:07:57;35.57;;;14.00;;
11675;SDS011;5894;42.768;23.404;2023-02-11T03:10:29;34.53;;;15.23;;
11675;SDS011;5894;42.768;23.404;2023-02-11T03:12:58;38.23;;;15.80;;
11675;SDS011;5894;42.768;23.404;2023-02-11T03:15:27;62.07;;;25.50;;
11675;SDS011;5894;42.768;23.404;2023-02-11T03:17:58;116.10;;;40.80;;
11675;SDS011;5894;42.768;23.404;2023-02-11T03:20:28;64.50;;;26.57;;
11675;SDS011;5894;42.768;23.404;2023-02-11T03:23:01;41.27;;;17.57;;
11675;SDS011;5894;42.768;23.404;2023-02-11T03:25:33;54.83;;;21.10;;
11675;SDS011;5894;42.768;23.404;2023-02-11T03:28:04;57.27;;;22.50;;
11675;SDS011;5894;42.768;23.404;2023-02-11T03:30:37;68.97;;;23.60;;
11675;SDS011;5894;42.768;23.404;2023-02-11T03:33:11;58.70;;;19.93;;
11675;SDS011;5894;42.768;23.404;2023-02-11T03:35:46;61.57;;;20.80;;
11675;SDS011;5894;42.768;23.404;2023-02-11T03:38:20;58.70;;;20.73;;
11675;SDS011;5894;42.768;23.404;2023-02-11T03:40:50;70.93;;;26.87;;
11675;SDS011;5894;42.768;23.404;2023-02-11T03:43:20;75.50;;;27.00;;
11675;SDS011;5894;42.768;23.404;2023-02-11T03:45:52;64.57;;;25.07;;
11675;SDS011;5894;42.768;23.404;2023-02-11T03:48:21;71.00;;;24.27;;
11675;SDS011;5894;42.768;23.404;2023-02-11T03:50:52;58.87;;;21.70;;
11675;SDS011;5894;42.768;23.404;2023-02-11T03:53:21;51.67;;;19.57;;
11675;SDS011;5894;42.768;23.404;2023-02-11T03:55:50;55.80;;;20.50;;
11675;SDS011;5894;42.768;23.404;2023-02-11T03:58:20;41.10;;;18.03;;
11675;SDS011;5894;42.768;23.404;2023-02-11T04:00:46;41.00;;;17.50;;
11675;SDS011;5894;42.768;23.404;2023-02-11T04:03:13;34.47;;;16.00;;
11675;SDS011;5894;42.768;23.404;2023-02-11T04:05:40;34.80;;;16.80;;
11675;SDS011;5894;42.768;23.404;2023-02-11T04:08:08;38.33;;;16.80;;
11675;SDS011;5894;42.768;23.404;2023-02-11T04:10:36;44.00;;;18.07;;
11675;SDS011;5894;42.768;23.404;2023-02-11T04:13:03;19.53;;;9.77;;
11675;SDS011;5894;42.768;23.404;2023-02-11T04:15:30;17.67;;;8.50;;
11675;SDS011;5894;42.768;23.404;2023-02-11T04:17:57;15.57;;;8.47;;
11675;SDS011;5894;42.768;23.404;2023-02-11T04:20:24;21.40;;;9.87;;
11675;SDS011;5894;42.768;23.404;2023-02-11T04:22:52;19.13;;;9.17;;
11675;SDS011;5894;42.768;23.404;2023-02-11T04:25:20;20.87;;;9.60;;
11675;SDS011;5894;42.768;23.404;2023-02-11T04:27:47;30.47;;;13.07;;
11675;SDS011;5894;42.768;23.404;2023-02-11T04:30:13;32.97;;;13.40;;
11675;SDS011;5894;42.768;23.404;2023-02-11T04:32:40;28.17;;;12.70;;
11675;SDS011;5894;42.768;23.404;2023-02-11T04:35:07;22.90;;;10.10;;
11675;SDS011;5894;42.768;23.404;2023-02-11T04:37:34;18.60;;;9.00;;
11675;SDS011;5894;42.768;23.404;2023-02-11T04:40:01;16.23;;;8.80;;
11675;SDS011;5894;42.768;23.404;2023-02-11T04:42:30;16.20;;;8.33;;
11675;SDS011;5894;42.768;23.404;2023-02-11T04:44:57;27.43;;;11.47;;
11675;SDS011;5894;42.768;23.404;2023-02-11T04:47:23;26.87;;;12.07;;
11675;SDS011;5894;42.768;23.404;2023-02-11T04:49:50;20.27;;;10.33;;
11675;SDS011;5894;42.768;23.404;2023-02-11T04:52:17;26.90;;;11.27;;
11675;SDS011;5894;42.768;23.404;2023-02-11T04:54:44;26.13;;;11.67;;
11675;SDS011;5894;42.768;23.404;2023-02-11T04:57:10;24.50;;;11.93;;
11675;SDS011;5894;42.768;23.404;2023-02-11T05:02:08;31.57;;;14.87;;
11675;SDS011;5894;42.768;23.404;2023-02-11T05:04:36;31.40;;;15.10;;
11675;SDS011;5894;42.768;23.404;2023-02-11T05:07:03;20.10;;;9.23;;
11675;SDS011;5894;42.768;23.404;2023-02-11T05:09:30;16.57;;;7.60;;
11675;SDS011;5894;42.768;23.404;2023-02-11T05:11:56;18.27;;;8.23;;
11675;SDS011;5894;42.768;23.404;2023-02-11T05:14:24;14.67;;;7.70;;
11675;SDS011;5894;42.768;23.404;2023-02-11T05:16:52;16.83;;;7.80;;
11675;SDS011;5894;42.768;23.404;2023-02-11T05:19:19;19.07;;;9.80;;
11675;SDS011;5894;42.768;23.404;2023-02-11T05:21:46;21.53;;;10.40;;
11675;SDS011;5894;42.768;23.404;2023-02-11T05:24:12;23.33;;;10.83;;
11675;SDS011;5894;42.768;23.404;2023-02-11T05:26:40;15.13;;;8.37;;
11675;SDS011;5894;42.768;23.404;2023-02-11T05:29:07;15.90;;;9.37;;
11675;SDS011;5894;42.768;23.404;2023-02-11T05:31:34;19.33;;;8.87;;
11675;SDS011;5894;42.768;23.404;2023-02-11T05:34:03;16.13;;;8.30;;
11675;SDS011;5894;42.768;23.404;2023-02-11T05:36:30;16.60;;;9.17;;
11675;SDS011;5894;42.768;23.404;2023-02-11T05:38:56;16.40;;;8.73;;
11675;SDS011;5894;42.768;23.404;2023-02-11T05:41:23;18.67;;;9.30;;
11675;SDS011;5894;42.768;23.404;2023-02-11T05:43:50;19.37;;;8.87;;
11675;SDS011;5894;42.768;23.404;2023-02-11T05:46:17;20.67;;;10.33;;
11675;SDS011;5894;42.768;23.404;2023-02-11T05:48:44;21.27;;;10.33;;
11675;SDS011;5894;42.768;23.404;2023-02-11T05:51:12;15.00;;;9.30;;
11675;SDS011;5894;42.768;23.404;2023-02-11T05:53:39;18.57;;;9.67;;
11675;SDS011;5894;42.768;23.404;2023-02-11T05:56:06;26.17;;;13.83;;
11675;SDS011;5894;42.768;23.404;2023-02-11T05:58:34;20.67;;;10.70;;
11675;SDS011;5894;42.768;23.404;2023-02-11T06:01:02;22.47;;;9.93;;
11675;SDS011;5894;42.768;23.404;2023-02-11T06:03:29;21.30;;;10.73;;
11675;SDS011;5894;42.768;23.404;2023-02-11T06:05:56;20.63;;;9.87;;
11675;SDS011;5894;42.768;23.404;2023-02-11T06:08:24;21.20;;;9.53;;
11675;SDS011;5894;42.768;23.404;2023-02-11T06:10:52;17.97;;;9.10;;
11675;SDS011;5894;42.768;23.404;2023-02-11T06:13:19;23.37;;;11.67;;
11675;SDS011;5894;42.768;23.404;2023-02-11T06:15:54;23.83;;;11.77;;
11675;SDS011;5894;42.768;23.404;2023-02-11T06:18:21;26.23;;;13.63;;
11675;SDS011;5894;42.768;23.404;2023-02-11T06:20:48;32.60;;;14.33;;
11675;SDS011;5894;42.768;23.404;2023-02-11T06:23:15;26.97;;;13.73;;
11675;SDS011;5894;42.768;23.404;2023-02-11T06:25:43;31.70;;;14.67;;
11675;SDS011;5894;42.768;23.404;2023-02-11T06:28:10;27.83;;;14.30;;
11675;SDS011;5894;42.768;23.404;2023-02-11T06:30:36;27.23;;;13.77;;
11675;SDS011;5894;42.768;23.404;2023-02-11T06:33:03;29.70;;;15.87;;
11675;SDS011;5894;42.768;23.404;2023-02-11T06:35:30;31.57;;;16.50;;
11675;SDS011;5894;42.768;23.404;2023-02-11T06:37:57;28.10;;;15.73;;
11675;SDS011;5894;42.768;23.404;2023-02-11T06:40:26;31.10;;;17.00;;
11675;SDS011;5894;42.768;23.404;2023-02-11T06:42:54;40.93;;;20.23;;
11675;SDS011;5894;42.768;23.404;2023-02-11T06:45:21;41.53;;;20.20;;
11675;SDS011;5894;42.768;23.404;2023-02-11T06:47:49;36.77;;;19.17;;
11675;SDS011;5894;42.768;23.404;2023-02-11T06:50:16;40.33;;;19.23;;
11675;SDS011;5894;42.768;23.404;2023-02-11T06:52:43;35.87;;;17.97;;
11675;SDS011;5894;42.768;23.404;2023-02-11T06:55:10;40.97;;;20.33;;
11675;SDS011;5894;42.768;23.404;2023-02-11T06:57:37;45.47;;;20.73;;
11675;SDS011;5894;42.768;23.404;2023-02-11T07:00:06;42.63;;;20.57;;
11675;SDS011;5894;42.768;23.404;2023-02-11T07:02:34;49.93;;;21.67;;
11675;SDS011;5894;42.768;23.404;2023-02-11T07:05:01;42.00;;;20.67;;
11675;SDS011;5894;42.768;23.404;2023-02-11T07:07:28;43.20;;;19.93;;
11675;SDS011;5894;42.768;23.404;2023-02-11T07:09:56;48.40;;;20.37;;
11675;SDS011;5894;42.768;23.404;2023-02-11T07:12:23;37.03;;;17.23;;
11675;SDS011;5894;42.768;23.404;2023-02-11T07:14:50;31.77;;;15.73;;
11675;SDS011;5894;42.768;23.404;2023-02-11T07:17:18;31.17;;;15.60;;
11675;SDS011;5894;42.768;23.404;2023-02-11T07:19:45;36.20;;;15.40;;
11675;SDS011;5894;42.768;23.404;2023-02-11T07:22:12;30.90;;;15.03;;
11675;SDS011;5894;42.768;23.404;2023-02-11T07:24:39;32.80;;;15.80;;
11675;SDS011;5894;42.768;23.404;2023-02-11T07:27:06;34.33;;;16.33;;
11675;SDS011;5894;42.768;23.404;2023-02-11T07:29:33;33.57;;;16.67;;
11675;SDS011;5894;42.768;23.404;2023-02-11T07:32:02;33.63;;;15.83;;
11675;SDS011;5894;42.768;23.404;2023-02-11T07:34:30;29.07;;;15.50;;
11675;SDS011;5894;42.768;23.404;2023-02-11T07:36:57;30.93;;;15.87;;
11675;SDS011;5894;42.768;23.404;2023-02-11T07:39:24;28.27;;;14.93;;
11675;SDS011;5894;42.768;23.404;2023-02-11T07:41:51;25.90;;;13.93;;
11675;SDS011;5894;42.768;23.404;2023-02-11T07:44:18;31.63;;;15.43;;
11675;SDS011;5894;42.768;23.404;2023-02-11T07:46:46;34.87;;;15.03;;
11675;SDS011;5894;42.768;23.404;2023-02-11T07:49:13;28.83;;;14.17;;
11675;SDS011;5894;42.768;23.404;2023-02-11T07:51:45;26.87;;;13.83;;
11675;SDS011;5894;42.768;23.404;2023-02-11T07:54:13;27.37;;;13.63;;
11675;SDS011;5894;42.768;23.404;2023-02-11T07:56:41;26.80;;;13.43;;
11675;SDS011;5894;42.768;23.404;2023-02-11T08:01:38;22.87;;;12.03;;
11675;SDS011;5894;42.768;23.404;2023-02-11T08:04:05;21.97;;;11.20;;
11675;SDS011;5894;42.768;23.404;2023-02-11T08:06:32;22.37;;;11.57;;
11675;SDS011;5894;42.768;23.404;2023-02-11T08:09:06;23.63;;;12.10;;
11675;SDS011;5894;42.768;23.404;2023-02-11T08:11:33;22.00;;;12.20;;
11675;SDS011;5894;42.768;23.404;2023-02-11T08:14:01;25.70;;;12.70;;
11675;SDS011;5894;42.768;23.404;2023-02-11T08:16:28;22.40;;;12.07;;
11675;SDS011;5894;42.768;23.404;2023-02-11T08:18:56;25.80;;;11.97;;
11675;SDS011;5894;42.768;23.404;2023-02-11T08:21:25;22.83;;;11.80;;
11675;SDS011;5894;42.768;23.404;2023-02-11T08:23:53;20.73;;;11.37;;
11675;SDS011;5894;42.768;23.404;2023-02-11T08:26:22;23.23;;;12.50;;
11675;SDS011;5894;42.768;23.404;2023-02-11T08:28:52;19.47;;;11.17;;
11675;SDS011;5894;42.768;23.404;2023-02-11T08:31:20;20.43;;;11.00;;
11675;SDS011;5894;42.768;23.404;2023-02-11T08:33:49;20.80;;;11.30;;
11675;SDS011;5894;42.768;23.404;2023-02-11T08:36:17;20.07;;;10.83;;
11675;SDS011;5894;42.768;23.404;2023-02-11T08:38:45;21.33;;;11.70;;
11675;SDS011;5894;42.768;23.404;2023-02-11T08:41:12;17.87;;;10.67;;
11675;SDS011;5894;42.768;23.404;2023-02-11T08:43:42;21.87;;;10.63;;
11675;SDS011;5894;42.768;23.404;2023-02-11T08:46:10;21.00;;;11.13;;
11675;SDS011;5894;42.768;23.404;2023-02-11T08:48:39;19.03;;;10.73;;
11675;SDS011;5894;42.768;23.404;2023-02-11T08:51:07;20.70;;;10.60;;
11675;SDS011;5894;42.768;23.404;2023-02-11T08:53:34;24.23;;;12.00;;
11675;SDS011;5894;42.768;23.404;2023-02-11T08:56:02;21.57;;;11.80;;
11675;SDS011;5894;42.768;23.404;2023-02-11T08:58:29;17.00;;;10.53;;
11675;SDS011;5894;42.768;23.404;2023-02-11T09:00:57;19.13;;;11.00;;
11675;SDS011;5894;42.768;23.404;2023-02-11T09:03:24;24.47;;;11.57;;
11675;SDS011;5894;42.768;23.404;2023-02-11T09:05:51;20.47;;;10.60;;
11675;SDS011;5894;42.768;23.404;2023-02-11T09:08:18;17.63;;;10.27;;
11675;SDS011;5894;42.768;23.404;2023-02-11T09:10:45;17.53;;;9.43;;
11675;SDS011;5894;42.768;23.404;2023-02-11T09:13:12;17.57;;;9.03;;
11675;SDS011;5894;42.768;23.404;2023-02-11T09:15:43;17.93;;;9.10;;
11675;SDS011;5894;42.768;23.404;2023-02-11T09:18:12;17.93;;;10.27;;
11675;SDS011;5894;42.768;23.404;2023-02-11T09:20:39;16.77;;;9.13;;
11675;SDS011;5894;42.768;23.404;2023-02-11T09:23:06;20.50;;;10.57;;
11675;SDS011;5894;42.768;23.404;2023-02-11T09:25:32;16.97;;;9.97;;
11675;SDS011;5894;42.768;23.404;2023-02-11T09:28:00;22.23;;;10.13;;
11675;SDS011;5894;42.768;23.404;2023-02-11T09:30:27;16.20;;;9.43;;
11675;SDS011;5894;42.768;23.404;2023-02-11T09:32:55;18.33;;;9.80;;
11675;SDS011;5894;42.768;23.404;2023-02-11T09:35:23;19.60;;;10.17;;
11675;SDS011;5894;42.768;23.404;2023-02-11T09:37:49;19.17;;;9.90;;
11675;SDS011;5894;42.768;23.404;2023-02-11T09:40:17;18.27;;;9.93;;
11675;SDS011;5894;42.768;23.404;2023-02-11T09:42:46;18.10;;;9.50;;
11675;SDS011;5894;42.768;23.404;2023-02-11T09:45:16;16.57;;;9.50;;
11675;SDS011;5894;42.768;23.404;2023-02-11T09:47:46;16.80;;;9.53;;
11675;SDS011;5894;42.768;23.404;2023-02-11T09:50:20;21.20;;;10.57;;
11675;SDS011;5894;42.768;23.404;2023-02-11T09:52:56;19.60;;;10.10;;
11675;SDS011;5894;42.768;23.404;2023-02-11T09:55:27;25.43;;;10.87;;
11675;SDS011;5894;42.768;23.404;2023-02-11T09:57:56;21.10;;;11.10;;
11675;SDS011;5894;42.768;23.404;2023-02-11T10:00:26;17.43;;;9.93;;
11675;SDS011;5894;42.768;23.404;2023-02-11T10:03:00;20.30;;;10.40;;
11675;SDS011;5894;42.768;23.404;2023-02-11T10:05:58;20.23;;;10.27;;
11675;SDS011;5894;42.768;23.404;2023-02-11T10:08:38;19.47;;;10.57;;
11675;SDS011;5894;42.768;23.404;2023-02-11T10:11:10;20.63;;;10.77;;
11675;SDS011;5894;42.768;23.404;2023-02-11T10:13:48;19.33;;;10.93;;
11675;SDS011;5894;42.768;23.404;2023-02-11T10:16:30;18.30;;;10.53;;
11675;SDS011;5894;42.768;23.404;2023-02-11T10:19:13;22.10;;;10.83;;
11675;SDS011;5894;42.768;23.404;2023-02-11T10:21:50;23.13;;;12.23;;
11675;SDS011;5894;42.768;23.404;2023-02-11T10:24:28;29.67;;;12.27;;
11675;SDS011;5894;42.768;23.404;2023-02-11T10:26:55;21.03;;;12.00;;
11675;SDS011;5894;42.768;23.404;2023-02-11T10:29:25;23.70;;;12.27;;
11675;SDS011;5894;42.768;23.404;2023-02-11T10:32:00;23.27;;;11.60;;
11675;SDS011;5894;42.768;23.404;2023-02-11T10:34:32;24.10;;;11.90;;
11675;SDS011;5894;42.768;23.404;2023-02-11T10:37:07;21.33;;;11.30;;
11675;SDS011;5894;42.768;23.404;2023-02-11T10:39:34;23.67;;;12.30;;
11675;SDS011;5894;42.768;23.404;2023-02-11T10:42:04;24.13;;;13.13;;
11675;SDS011;5894;42.768;23.404;2023-02-11T10:44:35;19.57;;;11.00;;
11675;SDS011;5894;42.768;23.404;2023-02-11T10:47:08;20.47;;;11.33;;
11675;SDS011;5894;42.768;23.404;2023-02-11T10:49:40;18.57;;;11.40;;
11675;SDS011;5894;42.768;23.404;2023-02-11T10:52:13;18.37;;;10.33;;
11675;SDS011;5894;42.768;23.404;2023-02-11T10:55:00;18.60;;;10.50;;
11675;SDS011;5894;42.768;23.404;2023-02-11T10:57:34;21.00;;;11.13;;
11675;SDS011;5894;42.768;23.404;2023-02-11T11:00:07;19.83;;;11.30;;
11675;SDS011;5894;42.768;23.404;2023-02-11T11:02:51;18.23;;;9.33;;
11675;SDS011;5894;42.768;23.404;2023-02-11T11:05:24;15.67;;;9.00;;
11675;SDS011;5894;42.768;23.404;2023-02-11T11:07:56;16.77;;;9.83;;
11675;SDS011;5894;42.768;23.404;2023-02-11T11:10:27;21.97;;;10.53;;
11675;SDS011;5894;42.768;23.404;2023-02-11T11:12:56;20.27;;;10.53;;
11675;SDS011;5894;42.768;23.404;2023-02-11T11:15:24;18.83;;;11.17;;
11675;SDS011;5894;42.768;23.404;2023-02-11T11:18:08;22.37;;;10.97;;
11675;SDS011;5894;42.768;23.404;2023-02-11T11:20:42;18.73;;;9.07;;
11675;SDS011;5894;42.768;23.404;2023-02-11T11:23:21;16.27;;;8.77;;
11675;SDS011;5894;42.768;23.404;2023-02-11T11:25:57;13.77;;;7.90;;
11675;SDS011;5894;42.768;23.404;2023-02-11T11:28:28;18.30;;;9.37;;
11675;SDS011;5894;42.768;23.404;2023-02-11T11:31:00;18.83;;;9.50;;
11675;SDS011;5894;42.768;23.404;2023-02-11T11:33:28;14.87;;;8.67;;
11675;SDS011;5894;42.768;23.404;2023-02-11T11:35:59;14.37;;;8.37;;
11675;SDS011;5894;42.768;23.404;2023-02-11T11:38:31;15.17;;;8.07;;
11675;SDS011;5894;42.768;23.404;2023-02-11T11:41:14;15.20;;;7.80;;
11675;SDS011;5894;42.768;23.404;2023-02-11T11:46:43;19.63;;;9.00;;
11675;SDS011;5894;42.768;23.404;2023-02-11T11:49:13;13.70;;;8.20;;
11675;SDS011;5894;42.768;23.404;2023-02-11T11:51:57;20.17;;;8.20;;
11675;SDS011;5894;42.768;23.404;2023-02-11T11:54:36;13.63;;;7.83;;
11675;SDS011;5894;42.768;23.404;2023-02-11T11:57:10;14.77;;;7.57;;
11675;SDS011;5894;42.768;23.404;2023-02-11T11:59:42;14.77;;;8.47;;
11675;SDS011;5894;42.768;23.404;2023-02-11T12:02:14;14.97;;;8.03;;
11675;SDS011;5894;42.768;23.404;2023-02-11T12:05:01;13.57;;;7.97;;
11675;SDS011;5894;42.768;23.404;2023-02-11T12:07:40;168.57;;;121.70;;
11675;SDS011;5894;42.768;23.404;2023-02-11T12:10:25;42.03;;;27.57;;
11675;SDS011;5894;42.768;23.404;2023-02-11T12:13:02;21.07;;;13.17;;
11675;SDS011;5894;42.768;23.404;2023-02-11T12:15:39;17.17;;;9.23;;
11675;SDS011;5894;42.768;23.404;2023-02-11T12:18:22;13.53;;;7.33;;
11675;SDS011;5894;42.768;23.404;2023-02-11T12:21:08;12.13;;;7.37;;
11675;SDS011;5894;42.768;23.404;2023-02-11T12:23:48;12.70;;;7.43;;
11675;SDS011;5894;42.768;23.404;2023-02-11T12:26:26;11.87;;;6.90;;
11675;SDS011;5894;42.768;23.404;2023-02-11T12:29:01;13.23;;;6.87;;
11675;SDS011;5894;42.768;23.404;2023-02-11T12:31:37;14.20;;;6.83;;
11675;SDS011;5894;42.768;23.404;2023-02-11T12:37:10;14.63;;;7.17;;
11675;SDS011;5894;42.768;23.404;2023-02-11T12:39:48;11.13;;;7.00;;
11675;SDS011;5894;42.768;23.404;2023-02-11T12:42:31;11.43;;;6.93;;
11675;SDS011;5894;42.768;23.404;2023-02-11T12:45:32;11.47;;;6.67;;
11675;SDS011;5894;42.768;23.404;2023-02-11T12:48:19;15.17;;;6.90;;
11675;SDS011;5894;42.768;23.404;2023-02-11T12:50:54;12.23;;;6.27;;
11675;SDS011;5894;42.768;23.404;2023-02-11T12:53:48;15.57;;;7.83;;
11675;SDS011;5894;42.768;23.404;2023-02-11T12:56:30;10.67;;;6.80;;
11675;SDS011;5894;42.768;23.404;2023-02-11T12:59:05;11.93;;;6.47;;
11675;SDS011;5894;42.768;23.404;2023-02-11T13:01:37;10.70;;;6.63;;
11675;SDS011;5894;42.768;23.404;2023-02-11T13:04:11;14.17;;;6.40;;
11675;SDS011;5894;42.768;23.404;2023-02-11T13:06:44;10.40;;;6.50;;
11675;SDS011;5894;42.768;23.404;2023-02-11T13:09:15;10.77;;;6.30;;
11675;SDS011;5894;42.768;23.404;2023-02-11T13:11:48;12.73;;;6.60;;
11675;SDS011;5894;42.768;23.404;2023-02-11T13:14:20;12.30;;;6.30;;
11675;SDS011;5894;42.768;23.404;2023-02-11T13:16:51;12.17;;;6.43;;
11675;SDS011;5894;42.768;23.404;2023-02-11T13:19:20;10.10;;;6.00;;
11675;SDS011;5894;42.768;23.404;2023-02-11T13:21:55;12.43;;;6.17;;
11675;SDS011;5894;42.768;23.404;2023-02-11T13:24:31;9.00;;;5.80;;
11675;SDS011;5894;42.768;23.404;2023-02-11T13:27:08;12.10;;;7.03;;
11675;SDS011;5894;42.768;23.404;2023-02-11T13:30:15;9.63;;;6.10;;
11675;SDS011;5894;42.768;23.404;2023-02-11T13:36:09;16.37;;;9.97;;
11675;SDS011;5894;42.768;23.404;2023-02-11T13:38:39;13.83;;;8.37;;
11675;SDS011;5894;42.768;23.404;2023-02-11T13:41:17;14.63;;;7.40;;
11675;SDS011;5894;42.768;23.404;2023-02-11T13:43:55;15.40;;;9.03;;
11675;SDS011;5894;42.768;23.404;2023-02-11T13:46:26;12.30;;;6.83;;
11675;SDS011;5894;42.768;23.404;2023-02-11T13:48:55;9.57;;;6.60;;
11675;SDS011;5894;42.768;23.404;2023-02-11T13:51:33;12.53;;;6.87;;
11675;SDS011;5894;42.768;23.404;2023-02-11T13:54:02;11.93;;;7.03;;
11675;SDS011;5894;42.768;23.404;2023-02-11T13:56:30;10.07;;;6.83;;
11675;SDS011;5894;42.768;23.404;2023-02-11T13:58:59;10.30;;;6.90;;
11675;SDS011;5894;42.768;23.404;2023-02-11T14:01:39;10.00;;;6.90;;
11675;SDS011;5894;42.768;23.404;2023-02-11T14:04:19;12.37;;;7.07;;
11675;SDS011;5894;42.768;23.404;2023-02-11T14:13:16;9.57;;;6.27;;
11675;SDS011;5894;42.768;23.404;2023-02-11T14:15:48;11.00;;;6.97;;
11675;SDS011;5894;42.768;23.404;2023-02-11T14:18:37;11.90;;;6.93;;
11675;SDS011;5894;42.768;23.404;2023-02-11T14:21:29;9.77;;;6.70;;
11675;SDS011;5894;42.768;23.404;2023-02-11T14:27:03;9.60;;;6.73;;
11675;SDS011;5894;42.768;23.404;2023-02-11T14:29:37;12.50;;;7.13;;
11675;SDS011;5894;42.768;23.404;2023-02-11T14:32:09;10.20;;;7.20;;
11675;SDS011;5894;42.768;23.404;2023-02-11T14:34:48;11.57;;;7.40;;
11675;SDS011;5894;42.768;23.404;2023-02-11T14:37:24;16.40;;;7.40;;
11675;SDS011;5894;42.768;23.404;2023-02-11T14:40:06;14.13;;;7.00;;
11675;SDS011;5894;42.768;23.404;2023-02-11T14:42:42;12.00;;;7.40;;
11675;SDS011;5894;42.768;23.404;2023-02-11T14:45:09;13.93;;;8.43;;
11675;SDS011;5894;42.768;23.404;2023-02-11T14:47:41;12.47;;;7.73;;
11675;SDS011;5894;42.768;23.404;2023-02-11T14:50:16;11.10;;;7.47;;
11675;SDS011;5894;42.768;23.404;2023-02-11T14:52:51;10.77;;;6.70;;
11675;SDS011;5894;42.768;23.404;2023-02-11T14:55:25;11.07;;;7.27;;
11675;SDS011;5894;42.768;23.404;2023-02-11T14:58:06;12.57;;;7.20;;
11675;SDS011;5894;42.768;23.404;2023-02-11T15:00:45;14.20;;;7.07;;
11675;SDS011;5894;42.768;23.404;2023-02-11T15:03:33;17.20;;;7.40;;
11675;SDS011;5894;42.768;23.404;2023-02-11T15:06:04;10.93;;;7.17;;
11675;SDS011;5894;42.768;23.404;2023-02-11T15:08:33;9.90;;;6.40;;
11675;SDS011;5894;42.768;23.404;2023-02-11T15:11:06;10.40;;;6.77;;
11675;SDS011;5894;42.768;23.404;2023-02-11T15:13:35;11.97;;;7.13;;
11675;SDS011;5894;42.768;23.404;2023-02-11T15:16:04;12.73;;;7.17;;
11675;SDS011;5894;42.768;23.404;2023-02-11T15:18:35;14.07;;;7.53;;
11675;SDS011;5894;42.768;23.404;2023-02-11T15:21:05;11.67;;;7.50;;
11675;SDS011;5894;42.768;23.404;2023-02-11T15:23:33;14.37;;;7.80;;